EGPD

Aberdeen Dyce Airport

Aberdeen, United Kingdom
METAR EGPD 141320Z 18007KT 9999 FEW025 SCT036 19/14 Q1008 TEMPO RA
Observed Flight Rules
Aug-14 @ 13:20 UTC (22 minutes ago) Visual Flight Rules
Wind Visibility Clouds
180° at 7 knots 10,000+ meters
  • Few at 2,500' AGL
  • Scattered at 3,600' AGL
Temperatures Readings
Current 19°C / 66°F
Dewpoint 14°C / 57°F
Humidity 73%
Altimeter 29.76" Hg
Pressure 1008 hPa
Elevation 65
METAR EGPD 141320Z 18007KT 9999 FEW025 SCT036 19/14 Q1008 TEMPO RA
Observed Flight Rules
Aug-14 @ 13:20 UTC
(22 minutes ago)
VFR
Wind Visibility
180° at 7 knots 10,000+ meters
Clouds
  • Few at 2,500' AGL
  • Scattered at 3,600' AGL
Temperature Dewpoint
19°C / 66°F 14°C / 57°F
Humidity Altimeter Pressure
73% 29.76" Hg 1008 hPa